Time;durP1;ratioP1;P1;durP2;ratioP2;P2;SDS_P1;SDS_P2;PMS_P1;PMS_P2;Temp;Humidity;BMP_temperature;BMP_pressure;BME280_temperature;BME280_humidity;BME280_pressure;Samples;Min_cycle;Max_cycle;Signal;HPM_P1;HPM_P2
2023/09/09 00:02:14;;;;;;;6.10;5.45;;;;;;;23.24;100.00;100323.25;5059433;28;20036;-75
2023/09/09 00:04:40;;;;;;;6.47;5.78;;;;;;;23.16;100.00;100328.81;5037850;28;20474;-76
2023/09/09 00:07:06;;;;;;;6.47;5.05;;;;;;;23.15;100.00;100323.50;5037459;28;20029;-75
2023/09/09 00:09:31;;;;;;;7.85;5.78;;;;;;;23.09;100.00;100319.38;5021928;28;20033;-75
2023/09/09 00:11:57;;;;;;;7.28;5.38;;;;;;;23.09;100.00;100325.88;5006807;28;20120;-75
2023/09/09 00:14:22;;;;;;;6.43;5.63;;;;;;;23.05;100.00;100321.38;4996726;28;20041;-75
2023/09/09 00:16:48;;;;;;;7.65;5.35;;;;;;;22.99;100.00;100322.91;5018175;28;20037;-75
2023/09/09 00:19:13;;;;;;;6.43;5.53;;;;;;;23.00;100.00;100319.69;5033493;28;20037;-75
2023/09/09 00:21:39;;;;;;;7.50;5.18;;;;;;;22.95;100.00;100317.97;5039551;28;20029;-75
2023/09/09 00:24:05;;;;;;;7.57;5.75;;;;;;;22.92;100.00;100310.22;5013497;28;20029;-75
2023/09/09 00:26:31;;;;;;;6.55;5.30;;;;;;;22.92;100.00;100310.22;5034505;28;20100;-75
2023/09/09 00:29:00;;;;;;;6.65;5.75;;;;;;;22.86;100.00;100311.75;4989088;28;20441;-75
2023/09/09 00:31:25;;;;;;;6.30;5.00;;;;;;;22.82;100.00;100313.75;5034572;28;20029;-75
2023/09/09 00:33:52;;;;;;;7.63;5.75;;;;;;;22.80;100.00;100316.13;5026086;28;20128;-75
2023/09/09 00:36:17;;;;;;;6.05;5.45;;;;;;;22.78;100.00;100307.19;5035679;28;20033;-75
2023/09/09 00:38:43;;;;;;;9.32;5.80;;;;;;;22.75;100.00;100308.78;5037821;28;20036;-75
2023/09/09 00:41:16;;;;;;;8.10;5.93;;;;;;;22.77;100.00;100308.41;5024032;28;20028;-75
2023/09/09 00:43:41;;;;;;;6.10;5.47;;;;;;;22.69;100.00;100304.66;5027718;28;20034;-75
2023/09/09 00:46:07;;;;;;;6.55;5.90;;;;;;;22.69;100.00;100315.97;5021095;28;20039;-75
2023/09/09 00:48:32;;;;;;;5.70;5.10;;;;;;;22.69;100.00;100309.50;5037130;28;20112;-75
2023/09/09 00:50:58;;;;;;;7.15;5.30;;;;;;;22.66;100.00;100304.59;5020907;28;20415;-75
2023/09/09 00:53:24;;;;;;;6.68;5.93;;;;;;;22.62;100.00;100303.72;5016937;28;20038;-75
2023/09/09 00:55:50;;;;;;;6.30;5.60;;;;;;;22.58;100.00;100302.84;5057132;28;20037;-75
2023/09/09 00:58:16;;;;;;;6.75;5.60;;;;;;;22.52;100.00;100300.34;5025829;28;20040;-75
2023/09/09 01:00:41;;;;;;;6.00;5.40;;;;;;;22.51;100.00;100298.72;5020871;28;20033;-75
2023/09/09 01:03:09;;;;;;;7.80;5.80;;;;;;;22.46;100.00;100298.22;5017291;28;20034;-75
2023/09/09 01:05:35;;;;;;;7.80;5.40;;;;;;;22.43;100.00;100293.34;5032007;28;20477;-75
2023/09/09 01:08:01;;;;;;;6.13;5.50;;;;;;;22.40;100.00;100297.75;5018783;28;20018;-75
2023/09/09 01:10:27;;;;;;;6.15;5.55;;;;;;;22.37;100.00;100298.50;5040280;28;20036;-75
2023/09/09 01:12:52;;;;;;;7.53;5.90;;;;;;;22.35;100.00;100300.88;5044457;28;20037;-75
2023/09/09 01:15:18;;;;;;;6.40;5.78;;;;;;;22.32;100.00;100296.00;5039439;28;20142;-75
2023/09/09 01:17:43;;;;;;;6.03;5.43;;;;;;;22.30;100.00;100298.38;5028208;28;20032;-75
2023/09/09 01:20:16;;;;;;;6.85;5.55;;;;;;;22.27;100.00;100301.97;5033427;28;20029;-75
2023/09/09 01:22:43;;;;;;;6.03;5.43;;;;;;;22.23;100.00;100289.75;5021389;28;20037;-75
2023/09/09 01:25:12;;;;;;;6.60;5.50;;;;;;;22.19;100.00;100289.69;5004071;28;20386;-75
2023/09/09 01:27:38;;;;;;;7.82;6.05;;;;;;;22.17;100.00;100292.06;5015557;28;20025;-75
2023/09/09 01:30:04;;;;;;;6.38;5.70;;;;;;;22.17;100.00;100291.25;5020285;28;20149;-75
2023/09/09 01:32:30;;;;;;;6.63;5.40;;;;;;;22.15;100.00;100294.47;5047372;28;20516;-75
2023/09/09 01:34:55;;;;;;;6.40;5.78;;;;;;;22.11;100.00;100292.75;5043631;28;20032;-75
2023/09/09 01:37:21;;;;;;;7.50;5.35;;;;;;;22.06;100.00;100289.06;5025350;28;20022;-75
2023/09/09 01:39:46;;;;;;;8.43;5.97;;;;;;;22.04;100.00;100290.63;5020225;28;20038;-75
2023/09/09 01:42:12;;;;;;;8.10;6.15;;;;;;;22.01;100.00;100291.41;5033377;28;20501;-75
2023/09/09 01:44:38;;;;;;;7.38;5.82;;;;;;;21.98;100.00;100294.94;5036518;28;20513;-75
2023/09/09 01:47:05;;;;;;;7.13;6.00;;;;;;;21.98;100.00;100295.78;4987572;28;20031;-75
2023/09/09 01:49:30;;;;;;;6.22;5.63;;;;;;;21.92;100.00;100294.44;5019826;28;20033;-75
2023/09/09 01:51:56;;;;;;;8.10;6.03;;;;;;;21.90;100.00;100290.34;5032791;28;20071;-75
2023/09/09 01:54:22;;;;;;;8.88;6.07;;;;;;;21.91;100.00;100290.00;5023504;28;20025;-75
2023/09/09 01:56:48;;;;;;;6.75;5.72;;;;;;;21.84;100.00;100290.69;5024498;28;20513;-75
2023/09/09 01:59:13;;;;;;;6.45;5.80;;;;;;;21.81;100.00;100284.97;5020033;28;20034;-75
2023/09/09 02:01:39;;;;;;;7.63;5.78;;;;;;;21.77;100.00;100290.56;5019888;28;20040;-75
2023/09/09 02:04:04;;;;;;;8.20;5.63;;;;;;;21.75;100.00;100290.09;5036115;28;20385;-74
2023/09/09 02:06:30;;;;;;;7.05;5.82;;;;;;;21.73;100.00;100291.66;5059370;28;20032;-75
2023/09/09 02:08:56;;;;;;;6.30;5.70;;;;;;;21.73;100.00;100280.38;5052694;28;20024;-75
2023/09/09 02:11:21;;;;;;;6.35;5.70;;;;;;;21.70;100.00;100290.41;5024721;28;20048;-75
2023/09/09 02:13:46;;;;;;;7.32;5.82;;;;;;;21.62;100.00;100292.31;5045738;28;20032;-75
2023/09/09 02:16:12;;;;;;;6.88;5.80;;;;;;;21.64;100.00;100289.91;5042528;28;20020;-75
2023/09/09 02:18:39;;;;;;;6.70;5.95;;;;;;;21.62;100.00;100289.47;5020337;28;20040;-75
2023/09/09 02:21:08;;;;;;;6.45;5.80;;;;;;;21.62;100.00;100280.19;5026595;28;20045;-75
2023/09/09 02:23:33;;;;;;;6.15;5.55;;;;;;;21.59;100.00;100286.56;4987479;28;20025;-75
2023/09/09 02:25:59;;;;;;;8.60;6.40;;;;;;;21.55;100.00;100286.50;5019349;28;20482;-75
2023/09/09 02:28:25;;;;;;;7.53;6.40;;;;;;;21.53;100.00;100290.88;5019639;28;20049;-75
2023/09/09 02:30:50;;;;;;;6.60;5.85;;;;;;;21.51;100.00;100288.44;5014344;28;20109;-75
2023/09/09 02:33:16;;;;;;;7.13;6.43;;;;;;;21.48;100.00;100292.03;5047802;28;20053;-75
2023/09/09 02:35:42;;;;;;;7.18;6.25;;;;;;;21.48;100.00;100292.03;5022342;28;20441;-75
2023/09/09 02:38:08;;;;;;;9.82;6.65;;;;;;;21.43;100.00;100292.31;5018991;28;20025;-75
2023/09/09 02:40:33;;;;;;;9.02;6.82;;;;;;;21.45;100.00;100286.28;5039828;28;20037;-75
2023/09/09 02:42:58;;;;;;;6.43;5.82;;;;;;;21.38;100.00;100286.97;5039839;28;20037;-75
2023/09/09 02:45:24;;;;;;;9.98;6.40;;;;;;;21.37;100.00;100279.69;4990590;28;20041;-75
2023/09/09 02:47:49;;;;;;;8.07;5.68;;;;;;;21.33;100.00;100281.59;5039478;28;20045;-74
2023/09/09 02:50:15;;;;;;;6.97;6.13;;;;;;;21.33;100.00;100284.41;5035742;28;20086;-75
2023/09/09 02:52:40;;;;;;;7.13;6.10;;;;;;;21.32;100.00;100277.13;5018652;28;20037;-75
2023/09/09 02:55:06;;;;;;;8.88;6.25;;;;;;;21.32;100.00;100282.78;5004455;28;20040;-75
2023/09/09 02:57:32;;;;;;;7.05;6.35;;;;;;;21.28;100.00;100281.88;5039507;28;20033;-75
2023/09/09 02:59:57;;;;;;;6.78;5.60;;;;;;;21.23;100.00;100299.13;5018892;28;20100;-75
2023/09/09 03:02:23;;;;;;;6.45;5.85;;;;;;;21.24;100.00;100295.94;5023039;28;20033;-75
2023/09/09 03:04:48;;;;;;;6.55;5.55;;;;;;;21.21;100.00;100307.97;5007049;28;20095;-75
2023/09/09 03:07:14;;;;;;;8.35;6.07;;;;;;;21.19;100.00;100290.59;5006521;28;20405;-75
2023/09/09 03:09:39;;;;;;;6.95;6.25;;;;;;;21.16;100.00;100300.63;5035875;28;20029;-75
2023/09/09 03:12:06;;;;;;;6.88;5.82;;;;;;;21.13;100.00;100298.53;5046258;28;20033;-75
2023/09/09 03:14:32;;;;;;;6.03;5.40;;;;;;;21.15;100.00;100295.34;5006883;28;20053;-75
2023/09/09 03:16:58;;;;;;;8.27;5.93;;;;;;;21.09;100.00;100308.94;5035808;28;20389;-75
2023/09/09 03:19:24;;;;;;;6.75;6.05;;;;;;;21.05;100.00;100310.84;5023140;28;20042;-75
2023/09/09 03:21:50;;;;;;;7.82;6.18;;;;;;;21.04;100.00;100311.25;5055461;28;20074;-75
2023/09/09 03:24:15;;;;;;;6.97;6.28;;;;;;;21.01;100.00;100307.16;5029449;28;20497;-75
2023/09/09 03:26:41;;;;;;;8.55;6.28;;;;;;;21.00;100.00;100311.16;5025528;28;20040;-75
2023/09/09 03:29:06;;;;;;;7.43;6.22;;;;;;;20.99;100.00;100315.16;5039113;28;20091;-75
2023/09/09 03:31:33;;;;;;;8.60;6.40;;;;;;;20.97;100.00;100307.06;5022335;28;20026;-75
2023/09/09 03:33:59;;;;;;;10.32;6.00;;;;;;;20.98;100.00;100307.91;5045691;28;20068;-75
2023/09/09 03:36:24;;;;;;;7.70;5.47;;;;;;;20.94;100.00;100306.97;5019418;28;20044;-74
2023/09/09 03:38:50;;;;;;;7.82;5.65;;;;;;;20.90;100.00;100308.94;5015613;28;20021;-75
2023/09/09 03:41:15;;;;;;;7.45;5.20;;;;;;;20.91;100.00;100313.38;5018909;28;20032;-75
2023/09/09 03:43:41;;;;;;;6.35;4.93;;;;;;;20.83;100.00;100309.56;5029060;28;20029;-75
2023/09/09 03:46:06;;;;;;;5.78;5.13;;;;;;;20.82;100.00;100307.94;5022139;28;20029;-75
2023/09/09 03:48:32;;;;;;;6.05;5.40;;;;;;;20.81;100.00;100308.28;5033587;28;20041;-75
2023/09/09 03:50:59;;;;;;;8.32;5.47;;;;;;;20.76;100.00;100306.59;5038874;28;20474;-75
2023/09/09 03:53:24;;;;;;;5.68;5.10;;;;;;;20.74;100.00;100312.59;5006113;28;20034;-75
2023/09/09 03:55:50;;;;;;;5.75;5.13;;;;;;;20.73;100.00;100310.16;5051627;28;20398;-75
2023/09/09 03:58:15;;;;;;;6.88;5.18;;;;;;;20.68;100.00;100314.06;5038316;28;20040;-75
2023/09/09 04:00:40;;;;;;;7.15;4.45;;;;;;;20.66;100.00;100307.97;4989260;28;20482;-75
2023/09/09 04:03:06;;;;;;;8.13;4.97;;;;;;;20.61;100.00;100315.91;4988903;28;20022;-74
2023/09/09 04:05:32;;;;;;;6.47;4.90;;;;;;;20.64;100.00;100313.16;5005558;28;20033;-75
2023/09/09 04:07:58;;;;;;;8.00;4.68;;;;;;;20.60;100.00;100320.72;5038280;28;20025;-75
2023/09/09 04:10:24;;;;;;;7.85;4.97;;;;;;;20.55;100.00;100318.19;5021807;28;20104;-75
2023/09/09 04:12:49;;;;;;;5.35;4.68;;;;;;;20.52;100.00;100322.53;5050217;28;20061;-75
2023/09/09 04:15:15;;;;;;;5.40;4.90;;;;;;;20.48;100.00;100316.00;5022839;28;20040;-75
2023/09/09 04:17:40;;;;;;;5.82;4.95;;;;;;;20.47;100.00;100324.81;5032384;28;20049;-75
2023/09/09 04:20:08;;;;;;;6.85;5.20;;;;;;;20.47;100.00;100327.63;5038901;28;20025;-75
2023/09/09 04:22:34;;;;;;;6.07;5.20;;;;;;;20.45;100.00;100324.38;5037852;28;20060;-75
2023/09/09 04:24:59;;;;;;;5.18;4.68;;;;;;;20.40;100.00;100328.28;5039109;28;20462;-75
2023/09/09 04:27:25;;;;;;;5.32;4.80;;;;;;;20.40;100.00;100330.28;5013807;28;20056;-75
2023/09/09 04:29:51;;;;;;;5.15;4.65;;;;;;;20.33;100.00;100333.72;5021289;28;20026;-75
2023/09/09 04:32:16;;;;;;;6.32;4.85;;;;;;;20.31;100.00;100336.94;5013908;28;20064;-75
2023/09/09 04:34:42;;;;;;;7.15;4.93;;;;;;;20.30;100.00;100334.47;5043639;28;20141;-75
2023/09/09 04:37:08;;;;;;;6.53;4.70;;;;;;;20.25;100.00;100329.09;5028304;28;20022;-74
2023/09/09 04:39:33;;;;;;;5.82;4.72;;;;;;;20.26;100.00;100337.19;5021180;28;20033;-75
2023/09/09 04:41:59;;;;;;;6.38;4.75;;;;;;;20.22;100.00;100332.63;5037680;28;20029;-75
2023/09/09 04:44:24;;;;;;;6.93;4.75;;;;;;;20.17;100.00;100330.94;5023659;28;20029;-75
2023/09/09 04:46:49;;;;;;;5.55;5.03;;;;;;;20.17;100.00;100332.91;5028490;28;20052;-74
2023/09/09 04:49:17;;;;;;;7.13;4.97;;;;;;;20.14;100.00;100326.00;5020685;28;20034;-75
2023/09/09 04:51:43;;;;;;;6.00;4.90;;;;;;;20.11;100.00;100323.91;5014606;28;20029;-75
2023/09/09 04:54:09;;;;;;;5.68;5.05;;;;;;;20.09;100.00;100323.47;5037103;28;20052;-75
2023/09/09 04:56:34;;;;;;;5.50;4.82;;;;;;;20.09;100.00;100317.84;5020748;28;20033;-75
2023/09/09 04:59:00;;;;;;;5.13;4.57;;;;;;;20.05;100.00;100322.53;5053163;28;20033;-75
2023/09/09 05:01:25;;;;;;;5.80;5.20;;;;;;;20.03;100.00;100319.25;5027570;28;20062;-74
2023/09/09 05:03:51;;;;;;;5.53;4.88;;;;;;;20.00;100.00;100320.84;5020426;28;20037;-75
2023/09/09 05:06:16;;;;;;;6.68;4.60;;;;;;;20.00;100.00;100317.16;5004176;28;20025;-75
2023/09/09 05:08:41;;;;;;;5.38;4.88;;;;;;;19.99;100.00;100313.53;5020606;28;20037;-74
2023/09/09 05:11:07;;;;;;;5.47;4.82;;;;;;;19.95;100.00;100318.28;5022241;28;20025;-75
2023/09/09 05:13:32;;;;;;;5.47;4.97;;;;;;;19.94;100.00;100316.63;5038337;28;20033;-74
2023/09/09 05:15:58;;;;;;;7.15;5.13;;;;;;;19.94;100.00;100316.63;5029252;28;20056;-75
2023/09/09 05:18:23;;;;;;;7.05;5.18;;;;;;;19.90;100.00;100320.53;5034213;28;20034;-74
2023/09/09 05:20:49;;;;;;;7.05;5.00;;;;;;;19.90;100.00;100318.53;5008104;28;20037;-75
2023/09/09 05:23:14;;;;;;;6.22;5.28;;;;;;;19.88;100.00;100320.88;5042544;28;20111;-75
2023/09/09 05:25:40;;;;;;;6.32;5.10;;;;;;;19.88;100.00;100317.25;5065286;28;20114;-74
2023/09/09 05:28:05;;;;;;;6.60;5.20;;;;;;;19.86;100.00;100315.63;5038671;28;20029;-74
2023/09/09 05:30:31;;;;;;;5.15;4.65;;;;;;;19.83;100.00;100307.88;5020270;28;20080;-75
2023/09/09 05:32:56;;;;;;;4.72;4.30;;;;;;;19.80;100.00;100311.41;5032904;28;20095;-75
2023/09/09 05:35:22;;;;;;;5.95;4.88;;;;;;;19.82;100.00;100314.69;5035499;28;20029;-75
2023/09/09 05:37:47;;;;;;;8.82;4.50;;;;;;;19.79;100.00;100306.97;5049723;28;20032;-75
2023/09/09 05:40:14;;;;;;;6.38;5.35;;;;;;;19.79;100.00;100311.81;5020274;28;20045;-74
2023/09/09 05:42:39;;;;;;;7.68;5.15;;;;;;;19.77;100.00;100312.16;5018054;28;20033;-74
2023/09/09 05:45:06;;;;;;;5.72;4.72;;;;;;;19.78;100.00;100313.81;5039820;28;20040;-75
2023/09/09 05:47:31;;;;;;;5.13;4.68;;;;;;;19.74;100.00;100310.06;5022984;28;20029;-74
2023/09/09 05:49:57;;;;;;;6.40;4.82;;;;;;;19.77;100.00;100306.50;5036289;28;20071;-74
2023/09/09 05:52:22;;;;;;;8.70;4.90;;;;;;;19.81;100.00;100315.91;5020068;28;20068;-74
2023/09/09 05:54:47;;;;;;;5.60;4.60;;;;;;;19.77;100.00;100311.34;5048223;28;20079;-74
2023/09/09 05:57:13;;;;;;;6.20;4.60;;;;;;;19.76;100.00;100310.53;5038531;28;20073;-74
2023/09/09 05:59:38;;;;;;;6.35;4.65;;;;;;;19.79;100.00;100308.97;5019881;28;20033;-74
2023/09/09 06:02:05;;;;;;;5.00;4.60;;;;;;;19.75;100.00;100314.53;5003547;28;20476;-75
2023/09/09 06:04:31;;;;;;;5.03;4.35;;;;;;;19.79;100.00;100314.63;5010838;28;20446;-74
2023/09/09 06:06:56;;;;;;;5.15;4.43;;;;;;;19.86;100.00;100321.28;5019730;28;20030;-74
2023/09/09 06:09:21;;;;;;;6.43;4.40;;;;;;;19.90;100.00;100320.53;5027928;28;20040;-74
2023/09/09 06:11:48;;;;;;;5.32;4.82;;;;;;;19.93;100.00;100320.63;5009003;28;20083;-74
2023/09/09 06:14:14;;;;;;;6.90;5.65;;;;;;;19.94;100.00;100316.63;5012760;28;20429;-75
2023/09/09 06:16:40;;;;;;;5.43;4.90;;;;;;;19.99;100.00;100327.63;5016637;28;20044;-74
2023/09/09 06:19:06;;;;;;;5.45;4.72;;;;;;;20.04;100.00;100323.75;5019113;28;20033;-74
2023/09/09 06:21:31;;;;;;;5.15;4.65;;;;;;;20.10;100.00;100313.81;5033326;28;20033;-74
2023/09/09 06:23:57;;;;;;;4.78;4.28;;;;;;;20.15;100.00;100316.38;5010110;28;20036;-74
2023/09/09 06:26:22;;;;;;;5.00;4.50;;;;;;;20.22;100.00;100307.25;5019473;28;20041;-74
2023/09/09 06:28:47;;;;;;;6.38;5.30;;;;;;;20.28;100.00;100306.66;5010241;28;20040;-74
2023/09/09 06:31:13;;;;;;;4.50;4.10;;;;;;;20.35;100.00;100308.00;5016122;28;20069;-74
2023/09/09 06:33:38;;;;;;;4.78;4.35;;;;;;;20.44;100.00;100302.97;5030064;28;20055;-74
2023/09/09 06:36:04;;;;;;;5.00;4.50;;;;;;;20.52;100.00;100293.50;5042322;28;20461;-74
2023/09/09 06:38:29;;;;;;;5.47;4.88;;;;;;;20.62;100.00;100300.63;5012556;28;20022;-75
2023/09/09 06:40:55;;;;;;;5.55;5.05;;;;;;;20.72;100.00;100300.84;5019797;28;20030;-75
2023/09/09 06:43:21;;;;;;;5.90;5.20;;;;;;;20.82;100.00;100301.47;5046268;28;20436;-74
2023/09/09 06:45:47;;;;;;;6.10;5.50;;;;;;;20.92;100.00;100293.25;4989475;28;20033;-75
2023/09/09 06:48:17;;;;;;;6.03;5.45;;;;;;;21.03;100.00;100303.94;5035599;28;20033;-75
2023/09/09 06:50:46;;;;;;;6.18;5.20;;;;;;;21.14;100.00;100294.50;5045072;28;20028;-75
2023/09/09 06:53:11;;;;;;;5.40;4.57;;;;;;;21.27;100.00;100302.84;5027610;28;20040;-75
2023/09/09 06:55:36;;;;;;;6.75;5.38;;;;;;;21.39;100.00;100302.72;5032685;28;20033;-75
2023/09/09 06:58:03;;;;;;;6.32;4.82;;;;;;;21.53;100.00;100299.38;5035623;28;20053;-75
2023/09/09 07:00:29;;;;;;;6.00;4.97;;;;;;;21.66;100.00;100294.38;5036380;28;20029;-75
2023/09/09 07:02:55;;;;;;;11.13;6.40;;;;;;;21.78;100.00;100297.81;5035527;28;20045;-75
2023/09/09 07:05:20;;;;;;;7.78;5.85;;;;;;;21.92;100.00;100293.63;5002665;28;20029;-75
2023/09/09 07:07:46;;;;;;;6.63;5.47;;;;;;;22.03;100.00;100289.78;5038971;28;20040;-75
2023/09/09 07:10:12;;;;;;;6.45;5.40;;;;;;;22.19;100.00;100288.88;5018678;28;20033;-75
2023/09/09 07:12:37;;;;;;;6.78;4.68;;;;;;;22.33;100.00;100280.63;5002897;28;20040;-75
2023/09/09 07:15:03;;;;;;;9.13;6.25;;;;;;;22.49;100.00;100286.16;5006592;28;20021;-75
2023/09/09 07:17:28;;;;;;;10.65;7.30;;;;;;;22.65;100.00;100291.63;5028065;28;20119;-75
2023/09/09 07:19:54;;;;;;;9.05;6.07;;;;;;;22.79;100.00;100288.19;5070911;28;20499;-75
2023/09/09 07:22:19;;;;;;;9.15;5.60;;;;;;;22.92;100.00;100298.91;5049212;28;20029;-75
2023/09/09 07:24:45;;;;;;;6.97;5.63;;;;;;;23.09;100.00;100288.22;5027528;28;20025;-75
2023/09/09 07:27:10;;;;;;;7.82;6.32;;;;;;;23.26;100.00;100293.31;5029896;28;20037;-75
2023/09/09 07:29:36;;;;;;;7.97;5.88;;;;;;;23.38;100.00;100284.56;5019167;28;20036;-75
2023/09/09 07:32:02;;;;;;;8.30;6.15;;;;;;;23.57;100.00;100288.44;5049628;28;20037;-75
2023/09/09 07:34:28;;;;;;;8.75;6.90;;;;;;;23.69;100.00;100282.47;5035566;28;20059;-75
2023/09/09 07:36:53;;;;;;;9.00;6.47;;;;;;;23.86;100.00;100289.56;5049080;28;20033;-75
2023/09/09 07:39:19;;;;;;;7.40;6.00;;;;;;;23.98;100.00;100280.75;5039682;28;20029;-75
2023/09/09 07:41:44;;;;;;;9.60;6.43;;;;;;;24.13;100.00;100283.75;5014814;28;20033;-75
2023/09/09 07:44:11;;;;;;;12.10;7.65;;;;;;;24.28;100.00;100285.47;5023140;28;20029;-75
2023/09/09 07:46:37;;;;;;;9.98;7.82;;;;;;;24.41;100.00;100286.00;5025431;28;20108;-75
2023/09/09 07:49:02;;;;;;;9.25;6.85;;;;;;;24.59;100.00;100289.78;5041556;28;20040;-75
2023/09/09 07:51:28;;;;;;;9.77;6.78;;;;;;;24.74;100.00;100291.53;5025480;28;20091;-75
2023/09/09 07:53:54;;;;;;;8.88;5.82;;;;;;;24.89;100.00;100291.63;5041832;28;20040;-75
2023/09/09 07:56:19;;;;;;;10.88;6.55;;;;;;;25.03;100.00;100296.56;5021813;28;20045;-75
2023/09/09 07:58:45;;;;;;;10.05;6.32;;;;;;;25.19;100.00;100295.03;5056332;28;20032;-75
2023/09/09 08:01:11;;;;;;;11.85;6.75;;;;;;;25.29;100.00;100299.13;5046886;28;20035;-75
2023/09/09 08:03:36;;;;;;;13.00;6.63;;;;;;;25.46;100.00;100297.56;5039593;28;20035;-75
2023/09/09 08:06:04;;;;;;;9.00;6.38;;;;;;;25.59;100.00;100296.00;5030062;28;20434;-75
2023/09/09 08:08:30;;;;;;;9.32;6.40;;;;;;;25.73;100.00;100295.22;5020767;28;20025;-75
2023/09/09 08:10:55;;;;;;;8.57;6.30;;;;;;;25.87;100.00;100288.78;4999251;28;20029;-75
2023/09/09 08:13:21;;;;;;;11.13;5.97;;;;;;;26.04;100.00;100296.50;5034699;28;20036;-75
2023/09/09 08:15:46;;;;;;;7.68;5.82;;;;;;;26.20;100.00;100289.63;5005218;28;20394;-75
2023/09/09 08:18:13;;;;;;;10.15;5.20;;;;;;;26.34;100.00;100294.50;5008299;28;20025;-75
2023/09/09 08:20:38;;;;;;;8.65;6.05;;;;;;;26.47;100.00;100299.38;5015474;28;20474;-75
2023/09/09 08:23:04;;;;;;;9.40;5.22;;;;;;;26.63;100.00;100301.00;5037665;28;20028;-75
2023/09/09 08:25:32;;;;;;;14.50;6.55;;;;;;;26.71;100.00;100309.13;5031372;28;20033;-75
2023/09/09 08:28:03;;;;;;;11.93;5.95;;;;;;;26.84;100.00;100308.72;5005782;28;20434;-75
2023/09/09 08:30:29;;;;;;;11.57;5.70;;;;;;;27.00;100.00;100314.78;5021581;28;20501;-75
2023/09/09 08:32:55;;;;;;;11.45;5.10;;;;;;;27.13;100.00;100313.09;4988287;28;20075;-75
2023/09/09 08:35:22;;;;;;;13.52;5.70;;;;;;;27.29;100.00;100312.66;5039293;28;20033;-75
2023/09/09 08:37:47;;;;;;;9.45;5.25;;;;;;;27.45;100.00;100315.06;5023223;28;20038;-75
2023/09/09 08:40:13;;;;;;;11.57;5.45;;;;;;;27.58;100.00;100315.38;5037628;28;20036;-75
2023/09/09 08:42:51;;;;;;;11.48;5.05;;;;;;;27.72;100.00;100320.19;5020926;28;20091;-75
2023/09/09 08:45:33;;;;;;;10.07;5.57;;;;;;;27.87;100.00;100309.56;5030418;28;20052;-75
2023/09/09 08:47:58;;;;;;;11.15;5.28;;;;;;;28.02;100.00;100305.38;5021508;28;20115;-75
2023/09/09 08:50:24;;;;;;;7.68;4.60;;;;;;;28.23;100.00;100301.56;5034079;28;20032;-75
2023/09/09 08:52:50;;;;;;;8.05;4.40;;;;;;;28.41;100.00;100299.34;5009896;28;20128;-75
2023/09/09 08:55:15;;;;;;;7.80;4.35;;;;;;;28.55;100.00;100298.44;5018305;28;20026;-75
2023/09/09 08:57:41;;;;;;;10.57;4.68;;;;;;;28.72;100.00;100291.75;5031839;28;20083;-75
2023/09/09 09:00:07;;;;;;;13.00;4.47;;;;;;;28.88;100.00;100301.78;5020450;28;20033;-75
2023/09/09 09:02:33;;;;;;;8.93;4.82;;;;;;;29.02;100.00;100292.25;5020409;28;20043;-75
2023/09/09 09:04:58;;;;;;;7.32;4.32;;;;;;;29.14;100.00;100289.69;5004172;28;20120;-75
2023/09/09 09:07:24;;;;;;;7.43;4.20;;;;;;;29.25;100.00;100294.44;5020473;28;20060;-75
2023/09/09 09:09:50;;;;;;;8.45;3.83;;;;;;;29.40;100.00;100290.19;5036628;28;20033;-75
2023/09/09 09:12:15;;;;;;;8.23;4.03;;;;;;;29.55;100.00;100296.50;5018376;28;20480;-75
2023/09/09 09:14:50;;;;;;;13.35;4.05;;;;;;;29.71;100.00;100295.91;5045378;28;20037;-75
2023/09/09 09:17:18;;;;;;;10.18;4.32;;;;;;;29.81;100.00;100292.06;5009139;28;20040;-75
2023/09/09 09:19:43;;;;;;;10.20;3.90;;;;;;;29.96;100.00;100295.53;5021456;28;20029;-75
2023/09/09 09:22:09;;;;;;;7.53;3.78;;;;;;;30.09;100.00;100307.19;5036756;28;20033;-75
2023/09/09 09:24:42;;;;;;;6.95;4.10;;;;;;;30.22;100.00;100302.50;5034708;28;20038;-75
2023/09/09 09:27:11;;;;;;;7.15;4.03;;;;;;;30.32;100.00;100313.00;5030152;28;20030;-75
2023/09/09 09:29:47;;;;;;;7.60;3.92;;;;;;;30.45;100.00;100314.00;5020223;28;20040;-75
2023/09/09 09:32:14;;;;;;;11.90;4.22;;;;;;;30.59;100.00;100312.09;5036154;28;20401;-75
2023/09/09 09:34:39;;;;;;;8.23;4.15;;;;;;;30.69;100.00;100305.38;5032827;28;20047;-75
2023/09/09 09:37:11;;;;;;;6.78;3.55;;;;;;;30.77;100.00;100306.88;5019992;28;20037;-75
2023/09/09 09:39:37;;;;;;;10.48;4.25;;;;;;;30.83;100.00;100310.88;5003736;28;20517;-75
2023/09/09 09:42:03;;;;;;;11.43;4.22;;;;;;;30.90;100.00;100324.28;5033222;28;20029;-75
2023/09/09 09:44:28;;;;;;;7.55;3.90;;;;;;;30.98;100.00;100317.16;5019931;28;20386;-75
2023/09/09 09:47:01;;;;;;;8.80;4.13;;;;;;;31.07;100.00;100320.25;5036364;28;20059;-75
2023/09/09 09:49:53;;;;;;;10.02;3.90;;;;;;;31.23;100.00;100312.97;5036035;28;20037;-75
2023/09/09 09:52:23;;;;;;;9.88;4.38;;;;;;;31.30;100.00;100316.50;5040690;28;20063;-75
2023/09/09 09:54:50;;;;;;;9.95;4.50;;;;;;;31.41;100.00;100309.78;5011561;28;20032;-76
2023/09/09 09:57:15;;;;;;;9.38;4.50;;;;;;;31.55;98.40;100297.97;5044881;28;20059;-76
2023/09/09 09:59:41;;;;;;;12.23;4.32;;;;;;;31.65;93.19;100302.69;5036033;28;20362;-75
2023/09/09 10:02:06;;;;;;;11.38;4.60;;;;;;;31.77;95.96;100306.94;5048240;28;20100;-76
2023/09/09 10:04:41;;;;;;;11.82;4.10;;;;;;;31.87;92.65;100296.44;5043424;28;20025;-75
2023/09/09 10:07:13;;;;;;;10.55;4.43;;;;;;;32.00;91.89;100306.00;5019648;28;20030;-76
2023/09/09 10:09:59;;;;;;;9.20;4.22;;;;;;;32.14;94.28;100296.22;5017578;28;20097;-76
2023/09/09 10:12:40;;;;;;;7.35;4.22;;;;;;;32.24;90.18;100295.16;5021680;28;20124;-76
2023/09/09 10:15:06;;;;;;;9.98;4.20;;;;;;;32.36;96.41;100297.31;5034544;28;20040;-76
2023/09/09 10:17:32;;;;;;;13.50;4.45;;;;;;;32.41;84.93;100296.78;5035522;28;20029;-76
2023/09/09 10:19:57;;;;;;;9.02;3.90;;;;;;;32.46;85.98;100298.34;5037643;28;20109;-76
2023/09/09 10:22:23;;;;;;;12.15;4.22;;;;;;;32.55;92.72;100304.25;5033853;28;20025;-76
2023/09/09 10:24:48;;;;;;;8.55;4.18;;;;;;;32.63;94.80;100294.19;5037041;28;20026;-75
2023/09/09 10:27:16;;;;;;;10.80;4.05;;;;;;;32.75;91.86;100300.44;5012509;28;20033;-76
2023/09/09 10:29:41;;;;;;;8.80;3.97;;;;;;;32.87;87.62;100296.81;5037305;28;20033;-75
2023/09/09 10:32:07;;;;;;;6.38;3.88;;;;;;;32.96;82.63;100302.75;5010679;28;20497;-76
2023/09/09 10:34:36;;;;;;;9.73;3.78;;;;;;;33.09;84.00;100297.84;5030817;28;20082;-75
2023/09/09 10:37:01;;;;;;;11.80;4.40;;;;;;;33.20;84.16;100299.63;5043564;28;20061;-72
2023/09/09 10:39:27;;;;;;;8.60;3.75;;;;;;;33.36;83.16;100288.84;5019231;28;20033;-76
2023/09/09 10:41:53;;;;;;;11.07;4.05;;;;;;;33.47;82.51;100285.66;5019117;28;20493;-76
2023/09/09 10:44:18;;;;;;;10.30;4.30;;;;;;;33.59;85.23;100290.66;5021511;28;20029;-75
2023/09/09 10:46:44;;;;;;;8.90;4.07;;;;;;;33.71;85.39;100294.81;5010544;28;20478;-75
2023/09/09 10:49:09;;;;;;;9.27;3.53;;;;;;;33.82;78.26;100288.72;5018772;28;20033;-76
2023/09/09 10:51:49;;;;;;;10.13;3.70;;;;;;;33.96;81.13;100296.09;5018904;28;20064;-75
2023/09/09 10:54:15;;;;;;;8.52;3.55;;;;;;;34.07;81.16;100293.69;5042914;28;20393;-75
2023/09/09 10:56:51;;;;;;;8.48;3.83;;;;;;;34.17;72.03;100294.63;5019368;28;21909;-75
2023/09/09 10:59:24;;;;;;;10.38;3.67;;;;;;;34.24;69.91;100282.84;5028602;28;20033;-76
2023/09/09 11:02:08;;;;;;;9.45;3.58;;;;;;;34.32;63.26;100284.22;5030565;28;20033;-76
2023/09/09 11:04:36;;;;;;;15.27;3.53;;;;;;;34.40;64.18;100279.00;5015607;28;20068;-75
2023/09/09 11:07:08;;;;;;;11.13;4.05;;;;;;;34.41;60.05;100277.75;5058662;28;20382;-76
2023/09/09 11:09:34;;;;;;;;;;;;;;;34.46;61.09;100269.34;5042961;28;20116;-76
2023/09/09 11:11:59;;;;;;;9.55;3.67;;;;;;;34.47;57.29;100270.94;5028879;28;19955;-75
2023/09/09 11:14:30;;;;;;;8.93;3.50;;;;;;;34.44;59.67;100265.31;5053882;28;20044;-75